createdAt,value
2018-12-22T00:00:26.732Z,995.33
2018-12-22T00:01:26.719Z,995.33
2018-12-22T00:02:26.707Z,995.38
2018-12-22T00:03:26.703Z,995.29
2018-12-22T00:04:26.693Z,995.39
2018-12-22T00:05:26.677Z,995.39
2018-12-22T00:06:26.671Z,995.45
2018-12-22T00:07:26.657Z,995.37
2018-12-22T00:08:26.649Z,995.38
2018-12-22T00:09:26.633Z,995.46
2018-12-22T00:10:26.643Z,995.33
2018-12-22T00:11:26.617Z,995.46
2018-12-22T00:12:26.609Z,995.51
2018-12-22T00:13:26.592Z,995.48
2018-12-22T00:14:26.584Z,995.41
2018-12-22T00:15:26.579Z,995.31
2018-12-22T00:16:26.561Z,995.39
2018-12-22T00:17:26.552Z,995.27
2018-12-22T00:18:26.540Z,995.46
2018-12-22T00:19:26.530Z,995.40
2018-12-22T00:20:26.521Z,995.28
2018-12-22T00:21:26.518Z,995.35
2018-12-22T00:22:26.509Z,995.33
2018-12-22T00:23:26.490Z,995.34
2018-12-22T00:24:26.496Z,995.30
2018-12-22T00:25:26.469Z,995.28
2018-12-22T00:26:26.458Z,995.40
2018-12-22T00:27:26.447Z,995.42
2018-12-22T00:28:26.445Z,995.46
2018-12-22T00:29:26.503Z,995.41
2018-12-22T00:30:26.418Z,995.50
2018-12-22T00:31:26.404Z,995.41
2018-12-22T00:32:26.396Z,995.45
2018-12-22T00:33:26.388Z,995.41
2018-12-22T00:34:26.383Z,995.48
2018-12-22T00:35:26.369Z,995.43
2018-12-22T00:36:26.358Z,995.52
2018-12-22T00:37:26.341Z,995.49
2018-12-22T00:38:26.324Z,995.51
2018-12-22T00:39:26.315Z,995.53
2018-12-22T00:40:26.306Z,995.52
2018-12-22T00:41:26.302Z,995.53
2018-12-22T00:42:26.288Z,995.54
2018-12-22T00:43:26.278Z,995.54
2018-12-22T00:44:26.268Z,995.60
2018-12-22T00:45:26.262Z,995.59
2018-12-22T00:46:26.249Z,995.60
2018-12-22T00:47:26.238Z,995.65
2018-12-22T00:48:26.227Z,995.65
2018-12-22T00:49:26.214Z,995.59
2018-12-22T00:50:26.214Z,995.58
2018-12-22T00:51:26.187Z,995.63
2018-12-22T00:52:26.187Z,995.67
2018-12-22T00:53:26.174Z,995.65
2018-12-22T00:54:26.175Z,995.68
2018-12-22T00:55:26.150Z,995.85
2018-12-22T00:56:26.135Z,995.65
2018-12-22T00:57:26.135Z,995.72
2018-12-22T00:58:30.692Z,995.77
2018-12-22T00:59:26.117Z,995.86
2018-12-22T01:00:26.106Z,995.80
2018-12-22T01:01:26.086Z,995.80
2018-12-22T01:02:26.078Z,995.79
2018-12-22T01:03:26.066Z,995.90
2018-12-22T01:04:26.061Z,995.75
2018-12-22T01:05:26.050Z,995.91
2018-12-22T01:06:26.033Z,995.92
2018-12-22T01:07:26.025Z,995.85
2018-12-22T01:08:26.009Z,995.91
2018-12-22T01:09:26.000Z,996.05
2018-12-22T01:10:25.992Z,995.96
2018-12-22T01:11:25.982Z,996.05
2018-12-22T01:12:25.967Z,996.03
2018-12-22T01:13:25.958Z,996.10
2018-12-22T01:14:25.945Z,996.15
2018-12-22T01:15:25.935Z,996.19
2018-12-22T01:16:25.925Z,996.17
2018-12-22T01:17:25.915Z,996.24
2018-12-22T01:18:25.906Z,996.26
2018-12-22T01:19:25.894Z,996.28
2018-12-22T01:20:25.885Z,996.26
2018-12-22T01:21:25.871Z,996.36
2018-12-22T01:22:25.862Z,996.33
2018-12-22T01:23:25.848Z,996.28
2018-12-22T01:24:25.839Z,996.32
2018-12-22T01:25:25.830Z,996.22
2018-12-22T01:26:25.827Z,996.31
2018-12-22T01:27:25.808Z,996.42
2018-12-22T01:28:25.805Z,996.49
2018-12-22T01:29:25.788Z,996.49
2018-12-22T01:30:25.779Z,996.51
2018-12-22T01:31:25.773Z,996.59
2018-12-22T01:32:25.770Z,996.56
2018-12-22T01:33:25.742Z,996.56
2018-12-22T01:34:25.732Z,996.42
2018-12-22T01:35:25.723Z,996.61
2018-12-22T01:36:25.720Z,996.51
2018-12-22T01:37:25.703Z,996.52
2018-12-22T01:38:25.693Z,996.53
2018-12-22T01:39:25.682Z,996.52
2018-12-22T01:40:25.675Z,996.53
2018-12-22T01:41:25.658Z,996.59
2018-12-22T01:42:25.646Z,996.48
2018-12-22T01:43:25.645Z,996.54
2018-12-22T01:44:25.630Z,996.47
2018-12-22T01:45:25.620Z,996.52
2018-12-22T01:46:25.605Z,996.48
2018-12-22T01:47:25.594Z,996.69
2018-12-22T01:48:25.591Z,996.53
2018-12-22T01:49:26.604Z,996.56
2018-12-22T01:50:25.566Z,996.62
2018-12-22T01:51:25.553Z,996.57
2018-12-22T01:52:25.543Z,996.62
2018-12-22T01:53:25.530Z,996.64
2018-12-22T01:54:25.519Z,996.53
2018-12-22T01:55:25.511Z,996.60
2018-12-22T01:56:25.503Z,996.78
2018-12-22T01:57:25.495Z,996.66
2018-12-22T01:58:25.477Z,996.82
2018-12-22T01:59:25.563Z,996.49
2018-12-22T02:00:25.456Z,996.68
2018-12-22T02:01:25.447Z,996.69
2018-12-22T02:02:25.434Z,996.80
2018-12-22T02:03:25.434Z,996.68
2018-12-22T02:04:25.417Z,996.82
2018-12-22T02:05:25.407Z,996.80
2018-12-22T02:06:25.393Z,996.81
2018-12-22T02:07:25.386Z,996.68
2018-12-22T02:08:25.374Z,996.86
2018-12-22T02:09:25.366Z,996.63
2018-12-22T02:10:25.350Z,996.98
2018-12-22T02:11:25.339Z,996.69
2018-12-22T02:12:25.327Z,997.14
2018-12-22T02:13:25.311Z,996.91
2018-12-22T02:14:25.300Z,996.91
2018-12-22T02:15:25.294Z,996.83
2018-12-22T02:16:25.283Z,996.94
2018-12-22T02:17:25.274Z,997.06
2018-12-22T02:18:25.264Z,997.07
2018-12-22T02:19:25.256Z,996.93
2018-12-22T02:20:25.244Z,997.01
2018-12-22T02:21:25.246Z,997.11
2018-12-22T02:22:25.224Z,996.98
2018-12-22T02:23:25.209Z,997.06
2018-12-22T02:24:25.204Z,996.97
2018-12-22T02:25:25.189Z,997.04
2018-12-22T02:26:25.181Z,997.06
2018-12-22T02:27:25.170Z,997.04
2018-12-22T02:28:25.165Z,997.17
2018-12-22T02:29:25.148Z,997.02
2018-12-22T02:30:25.135Z,997.00
2018-12-22T02:31:25.127Z,997.05
2018-12-22T02:32:25.130Z,997.06
2018-12-22T02:33:25.111Z,997.14
2018-12-22T02:34:25.096Z,997.22
2018-12-22T02:35:25.083Z,997.10
2018-12-22T02:36:25.075Z,997.18
2018-12-22T02:37:25.064Z,997.15
2018-12-22T02:38:25.050Z,997.20
2018-12-22T02:39:25.038Z,997.15
2018-12-22T02:40:25.027Z,997.06
2018-12-22T02:41:25.038Z,997.14
2018-12-22T02:42:25.009Z,997.20
2018-12-22T02:43:24.998Z,997.17
2018-12-22T02:44:25.003Z,997.27
2018-12-22T02:45:25.010Z,997.27
2018-12-22T02:46:24.966Z,997.27
2018-12-22T02:47:24.959Z,997.27
2018-12-22T02:48:24.956Z,997.26
2018-12-22T02:49:24.937Z,997.25
2018-12-22T02:50:24.924Z,997.22
2018-12-22T02:51:24.913Z,997.10
2018-12-22T02:52:25.012Z,997.19
2018-12-22T02:53:24.890Z,997.20
2018-12-22T02:54:24.877Z,997.25
2018-12-22T02:55:24.867Z,997.21
2018-12-22T02:56:24.860Z,997.25
2018-12-22T02:57:24.849Z,997.20
2018-12-22T02:58:24.838Z,997.24
2018-12-22T02:59:24.832Z,997.19
2018-12-22T03:00:24.819Z,997.22
2018-12-22T03:01:24.806Z,997.27
2018-12-22T03:02:24.793Z,997.23
2018-12-22T03:03:24.783Z,997.29
2018-12-22T03:04:24.773Z,997.29
2018-12-22T03:05:24.762Z,997.31
2018-12-22T03:06:24.755Z,997.34
2018-12-22T03:07:24.742Z,997.23
2018-12-22T03:08:24.730Z,997.31
2018-12-22T03:09:24.718Z,997.34
2018-12-22T03:10:24.705Z,997.45
2018-12-22T03:11:24.701Z,997.43
2018-12-22T03:12:24.694Z,997.28
2018-12-22T03:13:24.675Z,997.38
2018-12-22T03:14:24.666Z,997.43
2018-12-22T03:15:24.658Z,997.51
2018-12-22T03:16:24.645Z,997.27
2018-12-22T03:17:24.645Z,997.38
2018-12-22T03:18:24.623Z,997.44
2018-12-22T03:19:24.611Z,997.40
2018-12-22T03:20:24.603Z,997.48
2018-12-22T03:21:24.594Z,997.39
2018-12-22T03:22:24.581Z,997.48
2018-12-22T03:23:24.697Z,997.47
2018-12-22T03:24:24.561Z,997.53
2018-12-22T03:25:24.549Z,997.47
2018-12-22T03:26:24.542Z,997.54
2018-12-22T03:27:24.527Z,997.53
2018-12-22T03:28:24.538Z,997.57
2018-12-22T03:29:24.506Z,997.49
2018-12-22T03:30:24.500Z,997.69
2018-12-22T03:31:24.484Z,997.61
2018-12-22T03:32:24.504Z,997.52
2018-12-22T03:33:24.464Z,997.53
2018-12-22T03:34:24.455Z,997.62
2018-12-22T03:35:24.443Z,997.71
2018-12-22T03:36:24.433Z,997.62
2018-12-22T03:37:24.420Z,997.66
2018-12-22T03:38:24.413Z,997.64
2018-12-22T03:39:24.401Z,997.72
2018-12-22T03:40:24.392Z,997.66
2018-12-22T03:41:25.196Z,997.74
2018-12-22T03:42:24.368Z,997.72
2018-12-22T03:43:24.358Z,997.76
2018-12-22T03:44:24.349Z,997.79
2018-12-22T03:45:24.333Z,997.78
2018-12-22T03:46:24.319Z,997.86
2018-12-22T03:47:24.313Z,997.79
2018-12-22T03:48:24.311Z,997.73
2018-12-22T03:49:24.296Z,997.90
2018-12-22T03:50:24.286Z,997.82
2018-12-22T03:51:24.269Z,997.90
2018-12-22T03:52:24.262Z,997.89
2018-12-22T03:53:24.248Z,997.99
2018-12-22T03:54:24.240Z,997.90
2018-12-22T03:55:24.226Z,998.07
2018-12-22T03:56:24.226Z,997.90
2018-12-22T03:57:24.239Z,998.01
2018-12-22T03:58:24.196Z,998.05
2018-12-22T03:59:24.933Z,998.13
2018-12-22T04:00:24.180Z,998.09
2018-12-22T04:01:24.162Z,998.02
2018-12-22T04:02:24.156Z,998.16
2018-12-22T04:03:24.143Z,997.98
2018-12-22T04:04:24.143Z,998.08
2018-12-22T04:05:24.119Z,998.11
2018-12-22T04:06:24.108Z,998.05
2018-12-22T04:07:24.101Z,998.06
2018-12-22T04:08:24.087Z,998.13
2018-12-22T04:09:24.075Z,998.07
2018-12-22T04:10:24.064Z,997.97
2018-12-22T04:11:24.055Z,998.12
2018-12-22T04:12:24.046Z,998.08
2018-12-22T04:13:24.034Z,998.10
2018-12-22T04:14:24.020Z,997.98
2018-12-22T04:15:24.013Z,998.00
2018-12-22T04:16:24.000Z,997.99
2018-12-22T04:17:23.989Z,998.05
2018-12-22T04:18:23.979Z,998.04
2018-12-22T04:19:23.975Z,998.06
2018-12-22T04:20:23.966Z,998.10
2018-12-22T04:21:23.948Z,998.11
2018-12-22T04:22:23.936Z,998.05
2018-12-22T04:23:23.926Z,998.08
2018-12-22T04:24:23.915Z,998.10
2018-12-22T04:25:23.905Z,998.14
2018-12-22T04:26:23.906Z,998.06
2018-12-22T04:27:23.975Z,998.08
2018-12-22T04:28:23.871Z,998.12
2018-12-22T04:29:23.865Z,998.19
2018-12-22T04:30:23.852Z,998.17
2018-12-22T04:31:23.840Z,998.14
2018-12-22T04:32:23.832Z,998.10
2018-12-22T04:33:23.818Z,998.16
2018-12-22T04:34:23.807Z,998.12
2018-12-22T04:35:23.797Z,998.18
2018-12-22T04:36:23.791Z,998.13
2018-12-22T04:37:23.780Z,998.17
2018-12-22T04:38:23.772Z,998.23
2018-12-22T04:39:23.756Z,998.13
2018-12-22T04:40:23.756Z,998.24
2018-12-22T04:41:24.116Z,998.24
2018-12-22T04:42:23.721Z,998.24
2018-12-22T04:43:23.713Z,998.24
2018-12-22T04:44:23.698Z,998.29
2018-12-22T04:45:23.686Z,998.26
2018-12-22T04:46:23.674Z,998.20
2018-12-22T04:47:23.676Z,998.32
2018-12-22T04:48:23.652Z,998.27
2018-12-22T04:49:23.646Z,998.34
2018-12-22T04:50:23.634Z,998.33
2018-12-22T04:51:23.620Z,998.26
2018-12-22T04:52:23.612Z,998.32
2018-12-22T04:53:23.597Z,998.29
2018-12-22T04:54:23.589Z,998.30
2018-12-22T04:55:23.592Z,998.30
2018-12-22T04:56:23.571Z,998.30
2018-12-22T04:57:23.563Z,998.34
2018-12-22T04:58:23.546Z,998.28
2018-12-22T04:59:23.543Z,998.31
2018-12-22T05:00:23.531Z,998.32
2018-12-22T05:01:23.521Z,998.43
2018-12-22T05:02:23.524Z,998.39
2018-12-22T05:03:23.495Z,998.46
2018-12-22T05:04:23.487Z,998.50
2018-12-22T05:05:23.473Z,998.53
2018-12-22T05:06:23.465Z,998.52
2018-12-22T05:07:23.453Z,998.52
2018-12-22T05:08:23.443Z,998.38
2018-12-22T05:09:23.429Z,998.55
2018-12-22T05:10:23.415Z,998.53
2018-12-22T05:11:23.404Z,998.59
2018-12-22T05:12:23.404Z,998.57
2018-12-22T05:13:23.388Z,998.55
2018-12-22T05:14:23.380Z,998.60
2018-12-22T05:15:23.369Z,998.63
2018-12-22T05:16:23.356Z,998.59
2018-12-22T05:17:23.344Z,998.58
2018-12-22T05:18:23.338Z,998.64
2018-12-22T05:19:23.327Z,998.55
2018-12-22T05:20:23.322Z,998.63
2018-12-22T05:21:23.301Z,998.64
2018-12-22T05:22:23.299Z,998.68
2018-12-22T05:23:23.281Z,998.65
2018-12-22T05:24:23.270Z,998.65
2018-12-22T05:25:23.255Z,998.61
2018-12-22T05:26:23.242Z,998.47
2018-12-22T05:27:23.238Z,998.59
2018-12-22T05:28:23.225Z,998.61
2018-12-22T05:29:23.216Z,998.74
2018-12-22T05:30:23.206Z,998.66
2018-12-22T05:31:23.194Z,998.72
2018-12-22T05:32:23.183Z,998.62
2018-12-22T05:33:23.176Z,998.68
2018-12-22T05:34:23.161Z,998.68
2018-12-22T05:35:23.154Z,998.71
2018-12-22T05:36:23.212Z,998.60
2018-12-22T05:37:23.126Z,998.74
2018-12-22T05:38:23.112Z,998.83
2018-12-22T05:39:23.102Z,998.74
2018-12-22T05:40:23.094Z,998.78
2018-12-22T05:41:23.083Z,998.82
2018-12-22T05:42:23.073Z,998.84
2018-12-22T05:43:23.060Z,998.85
2018-12-22T05:44:23.052Z,998.82
2018-12-22T05:45:23.043Z,998.82
2018-12-22T05:46:23.042Z,998.87
2018-12-22T05:47:23.025Z,998.80
2018-12-22T05:48:23.013Z,998.73
2018-12-22T05:49:23.001Z,998.77
2018-12-22T05:50:22.989Z,998.72
2018-12-22T05:51:22.980Z,998.72
2018-12-22T05:52:23.015Z,998.76
2018-12-22T05:53:22.957Z,998.67
2018-12-22T05:54:22.962Z,998.81
2018-12-22T05:55:22.937Z,998.85
2018-12-22T05:56:22.924Z,998.84
2018-12-22T05:57:22.915Z,998.77
2018-12-22T05:58:22.908Z,998.84
2018-12-22T05:59:22.894Z,998.76
2018-12-22T06:00:22.893Z,998.84
2018-12-22T06:01:22.880Z,998.81
2018-12-22T06:02:22.864Z,998.89
2018-12-22T06:03:22.883Z,998.87
2018-12-22T06:04:22.838Z,998.90
2018-12-22T06:05:22.838Z,998.90
2018-12-22T06:06:22.829Z,998.91
2018-12-22T06:07:22.815Z,998.87
2018-12-22T06:08:22.801Z,998.89
2018-12-22T06:09:22.786Z,998.88
2018-12-22T06:10:22.779Z,998.86
2018-12-22T06:11:22.760Z,998.86
2018-12-22T06:12:22.755Z,998.87
2018-12-22T06:13:22.744Z,998.87
2018-12-22T06:14:22.733Z,998.94
2018-12-22T06:15:22.721Z,998.89
2018-12-22T06:16:22.711Z,998.86
2018-12-22T06:17:22.701Z,998.91
2018-12-22T06:18:22.688Z,998.93
2018-12-22T06:19:22.681Z,998.86
2018-12-22T06:20:22.668Z,998.88
2018-12-22T06:21:22.659Z,998.96
2018-12-22T06:22:22.653Z,998.91
2018-12-22T06:23:22.639Z,998.96
2018-12-22T06:24:22.634Z,998.95
2018-12-22T06:25:22.621Z,998.96
2018-12-22T06:26:22.605Z,998.93
2018-12-22T06:27:22.593Z,998.86
2018-12-22T06:28:22.584Z,999.00
2018-12-22T06:29:22.575Z,998.91
2018-12-22T06:30:22.558Z,998.97
2018-12-22T06:31:22.548Z,998.92
2018-12-22T06:32:22.540Z,998.96
2018-12-22T06:33:22.531Z,998.87
2018-12-22T06:34:22.519Z,998.98
2018-12-22T06:35:22.512Z,998.97
2018-12-22T06:36:22.496Z,998.95
2018-12-22T06:37:22.493Z,998.98
2018-12-22T06:38:22.475Z,998.96
2018-12-22T06:39:22.470Z,998.99
2018-12-22T06:40:22.454Z,998.99
2018-12-22T06:41:22.445Z,999.05
2018-12-22T06:42:22.430Z,999.00
2018-12-22T06:43:22.420Z,999.05
2018-12-22T06:44:22.409Z,999.03
2018-12-22T06:45:22.399Z,999.08
2018-12-22T06:46:22.388Z,999.10
2018-12-22T06:47:22.381Z,999.11
2018-12-22T06:48:22.368Z,999.10
2018-12-22T06:49:22.356Z,999.14
2018-12-22T06:50:22.347Z,999.18
2018-12-22T06:51:22.335Z,999.17
2018-12-22T06:52:22.335Z,999.19
2018-12-22T06:53:22.323Z,999.15
2018-12-22T06:54:22.303Z,999.19
2018-12-22T06:55:22.292Z,999.23
2018-12-22T06:56:22.288Z,999.22
2018-12-22T06:57:22.274Z,999.19
2018-12-22T06:58:22.262Z,999.26
2018-12-22T06:59:22.250Z,999.29
2018-12-22T07:00:22.236Z,999.26
2018-12-22T07:01:22.223Z,999.32
2018-12-22T07:02:22.222Z,999.29
2018-12-22T07:03:22.209Z,999.33
2018-12-22T07:04:22.196Z,999.36
2018-12-22T07:05:22.192Z,999.34
2018-12-22T07:06:22.176Z,999.36
2018-12-22T07:07:22.165Z,999.46
2018-12-22T07:08:22.155Z,999.41
2018-12-22T07:09:22.143Z,999.44
2018-12-22T07:10:22.137Z,999.50
2018-12-22T07:11:22.249Z,999.39
2018-12-22T07:12:22.111Z,999.47
2018-12-22T07:13:22.099Z,999.50
2018-12-22T07:14:22.090Z,999.53
2018-12-22T07:15:22.081Z,999.45
2018-12-22T07:16:22.072Z,999.53
2018-12-22T07:17:22.061Z,999.46
2018-12-22T07:18:22.047Z,999.57
2018-12-22T07:19:22.037Z,999.58
2018-12-22T07:20:22.020Z,999.56
2018-12-22T07:21:22.012Z,999.50
2018-12-22T07:22:23.400Z,999.57
2018-12-22T07:23:21.990Z,999.51
2018-12-22T07:24:21.979Z,999.50
2018-12-22T07:25:21.976Z,999.51
2018-12-22T07:26:21.959Z,999.57
2018-12-22T07:27:21.949Z,999.54
2018-12-22T07:28:21.933Z,999.55
2018-12-22T07:29:21.967Z,999.60
2018-12-22T07:30:26.075Z,999.61
2018-12-22T07:31:21.906Z,999.62
2018-12-22T07:32:21.893Z,999.64
2018-12-22T07:33:21.880Z,999.61
2018-12-22T07:34:21.877Z,999.65
2018-12-22T07:35:21.859Z,999.63
2018-12-22T07:36:21.851Z,999.70
2018-12-22T07:37:21.843Z,999.63
2018-12-22T07:38:21.831Z,999.68
2018-12-22T07:39:21.825Z,999.66
2018-12-22T07:40:21.817Z,999.61
2018-12-22T07:41:21.799Z,999.65
2018-12-22T07:42:21.792Z,999.62
2018-12-22T07:43:21.782Z,999.64
2018-12-22T07:44:21.768Z,999.73
2018-12-22T07:45:21.759Z,999.67
2018-12-22T07:46:21.754Z,999.65
2018-12-22T07:47:21.736Z,999.63
2018-12-22T07:48:21.726Z,999.68
2018-12-22T07:49:21.714Z,999.69
2018-12-22T07:50:21.702Z,999.62
2018-12-22T07:51:21.691Z,999.72
2018-12-22T07:52:21.681Z,999.70
2018-12-22T07:53:21.673Z,999.72
2018-12-22T07:54:21.665Z,999.76
2018-12-22T07:55:21.650Z,999.70
2018-12-22T07:56:21.638Z,999.69
2018-12-22T07:57:21.627Z,999.80
2018-12-22T07:58:21.622Z,999.72
2018-12-22T07:59:21.607Z,999.77
2018-12-22T08:00:21.598Z,999.77
2018-12-22T08:01:21.584Z,999.74
2018-12-22T08:02:21.576Z,999.84
2018-12-22T08:03:21.565Z,999.89
2018-12-22T08:04:21.561Z,999.83
2018-12-22T08:05:21.584Z,999.84
2018-12-22T08:06:21.554Z,999.76
2018-12-22T08:07:21.522Z,999.83
2018-12-22T08:08:23.637Z,999.76
2018-12-22T08:09:21.503Z,999.82
2018-12-22T08:10:21.499Z,999.87
2018-12-22T08:11:21.479Z,999.81
2018-12-22T08:12:21.467Z,999.79
2018-12-22T08:13:21.463Z,999.89
2018-12-22T08:14:21.445Z,999.92
2018-12-22T08:15:21.436Z,999.89
2018-12-22T08:16:21.427Z,999.88
2018-12-22T08:17:21.417Z,999.85
2018-12-22T08:18:21.408Z,999.87
2018-12-22T08:19:21.396Z,999.90
2018-12-22T08:20:21.386Z,999.90
2018-12-22T08:21:21.376Z,999.95
2018-12-22T08:22:21.361Z,999.98
2018-12-22T08:23:21.354Z,999.95
2018-12-22T08:24:21.346Z,999.94
2018-12-22T08:25:21.328Z,999.97
2018-12-22T08:26:21.321Z,1000.00
2018-12-22T08:27:21.307Z,999.98
2018-12-22T08:28:21.300Z,999.97
2018-12-22T08:29:21.286Z,1000.01
2018-12-22T08:30:21.272Z,1000.10
2018-12-22T08:31:23.122Z,1000.10
2018-12-22T08:32:21.257Z,1000.10
2018-12-22T08:33:21.247Z,1000.14
2018-12-22T08:34:21.245Z,1000.12
2018-12-22T08:35:21.224Z,1000.15
2018-12-22T08:36:21.213Z,1000.19
2018-12-22T08:37:21.203Z,1000.15
2018-12-22T08:38:21.196Z,1000.19
2018-12-22T08:39:21.183Z,1000.28
2018-12-22T08:40:21.171Z,1000.30
2018-12-22T08:41:21.158Z,1000.31
2018-12-22T08:42:21.146Z,1000.35
2018-12-22T08:43:21.144Z,1000.41
2018-12-22T08:44:21.125Z,1000.36
2018-12-22T08:45:21.109Z,1000.48
2018-12-22T08:46:21.098Z,1000.44
2018-12-22T08:47:21.091Z,1000.52
2018-12-22T08:48:21.079Z,1000.57
2018-12-22T08:49:21.069Z,1000.57
2018-12-22T08:50:21.063Z,1000.52
2018-12-22T08:51:21.046Z,1000.61
2018-12-22T08:52:21.038Z,1000.61
2018-12-22T08:53:21.027Z,1000.65
2018-12-22T08:54:21.026Z,1000.71
2018-12-22T08:55:21.003Z,1000.68
2018-12-22T08:56:20.990Z,1000.67
2018-12-22T08:57:20.979Z,1000.69
2018-12-22T08:58:20.970Z,1000.65
2018-12-22T08:59:20.990Z,1000.68
2018-12-22T09:00:21.017Z,1000.70
2018-12-22T09:01:20.945Z,1000.73
2018-12-22T09:02:20.950Z,1000.79
2018-12-22T09:03:20.956Z,1000.72
2018-12-22T09:04:20.937Z,1000.82
2018-12-22T09:05:20.947Z,1000.82
2018-12-22T09:06:20.932Z,1000.80
2018-12-22T09:07:20.899Z,1000.81
2018-12-22T09:08:20.870Z,1000.84
2018-12-22T09:09:21.044Z,1000.84
2018-12-22T09:10:20.864Z,1000.85
2018-12-22T09:11:20.860Z,1000.85
2018-12-22T09:12:20.841Z,1000.90
2018-12-22T09:13:21.181Z,1000.83
2018-12-22T09:14:20.814Z,1000.86
2018-12-22T09:15:20.796Z,1000.84
2018-12-22T09:16:20.779Z,1000.89
2018-12-22T09:17:20.782Z,1000.86
2018-12-22T09:18:20.763Z,1000.89
2018-12-22T09:19:20.763Z,1000.90
2018-12-22T09:20:20.746Z,1000.91
2018-12-22T09:21:20.765Z,1000.94
2018-12-22T09:22:20.759Z,1000.86
2018-12-22T09:23:20.716Z,1000.90
2018-12-22T09:24:20.723Z,1000.97
2018-12-22T09:25:20.700Z,1000.95
2018-12-22T09:26:20.695Z,1000.99
2018-12-22T09:27:20.659Z,1000.93
2018-12-22T09:28:20.692Z,1000.89
2018-12-22T09:29:20.709Z,1000.86
2018-12-22T09:30:20.689Z,1000.92
2018-12-22T09:31:20.675Z,1000.92
2018-12-22T09:32:20.629Z,1000.82
2018-12-22T09:33:20.621Z,1000.83
2018-12-22T09:34:20.626Z,1000.90
2018-12-22T09:35:20.602Z,1000.87
2018-12-22T09:36:20.603Z,1000.91
2018-12-22T09:37:20.559Z,1000.95
2018-12-22T09:38:20.593Z,1000.96
2018-12-22T09:39:20.559Z,1000.95
2018-12-22T09:40:20.560Z,1000.95
2018-12-22T09:41:20.532Z,1000.97
2018-12-22T09:42:20.535Z,1000.97
2018-12-22T09:43:20.524Z,1000.95
2018-12-22T09:44:20.489Z,1000.98
2018-12-22T09:45:20.533Z,1001.06
2018-12-22T09:46:20.504Z,1001.04
2018-12-22T09:47:20.468Z,1001.00
2018-12-22T09:48:20.461Z,1001.05
2018-12-22T09:49:20.441Z,1001.13
2018-12-22T09:50:20.441Z,1001.13
2018-12-22T09:51:20.422Z,1001.04
2018-12-22T09:52:20.416Z,1001.03
2018-12-22T09:53:20.419Z,1001.03
2018-12-22T09:54:20.396Z,1001.05
2018-12-22T09:55:20.440Z,1001.04
2018-12-22T09:56:20.363Z,1001.07
2018-12-22T09:57:20.354Z,1001.16
2018-12-22T09:58:20.337Z,1001.06
2018-12-22T09:59:20.395Z,1001.12
2018-12-22T10:00:20.310Z,1001.16
2018-12-22T10:01:20.305Z,1001.17
2018-12-22T10:02:20.304Z,1001.21
2018-12-22T10:03:20.324Z,1001.22
2018-12-22T10:04:20.286Z,1001.15
2018-12-22T10:05:20.268Z,1001.20
2018-12-22T10:06:20.274Z,1001.20
2018-12-22T10:07:20.258Z,1001.25
2018-12-22T10:08:20.257Z,1001.23
2018-12-22T10:09:20.231Z,1001.21
2018-12-22T10:10:20.199Z,1001.25
2018-12-22T10:11:20.220Z,1001.22
2018-12-22T10:12:20.226Z,1001.17
2018-12-22T10:13:20.202Z,1001.24
2018-12-22T10:14:20.186Z,1001.29
2018-12-22T10:15:20.193Z,1001.43
2018-12-22T10:16:20.148Z,1001.48
2018-12-22T10:17:20.150Z,1001.50
2018-12-22T10:18:20.117Z,1001.46
2018-12-22T10:19:20.109Z,1001.52
2018-12-22T10:20:20.149Z,1001.51
2018-12-22T10:21:20.109Z,1001.58
2018-12-22T10:22:20.104Z,1001.54
2018-12-22T10:23:20.111Z,1001.54
2018-12-22T10:24:20.076Z,1001.57
2018-12-22T10:25:20.088Z,1001.60
2018-12-22T10:26:20.108Z,1001.61
2018-12-22T10:27:20.027Z,1001.73
2018-12-22T10:28:20.018Z,1001.70
2018-12-22T10:29:20.021Z,1001.72
2018-12-22T10:30:20.035Z,1001.69
2018-12-22T10:31:20.034Z,1001.85
2018-12-22T10:32:20.010Z,1001.85
2018-12-22T10:33:19.970Z,1001.90
2018-12-22T10:34:19.973Z,1001.88
2018-12-22T10:35:19.962Z,1001.87
2018-12-22T10:36:19.956Z,1001.88
2018-12-22T10:37:19.933Z,1001.88
2018-12-22T10:38:19.896Z,1001.93
2018-12-22T10:39:19.940Z,1001.97
2018-12-22T10:40:19.875Z,1001.99
2018-12-22T10:41:19.887Z,1002.01
2018-12-22T10:42:19.882Z,1002.06
2018-12-22T10:43:19.861Z,1002.06
2018-12-22T10:44:19.870Z,1001.98
2018-12-22T10:45:19.957Z,1002.05
2018-12-22T10:46:19.852Z,1002.04
2018-12-22T10:47:19.843Z,1002.10
2018-12-22T10:48:19.810Z,1002.18
2018-12-22T10:49:19.815Z,1002.17
2018-12-22T10:50:19.800Z,1002.22
2018-12-22T10:51:24.295Z,1002.20
2018-12-22T10:52:19.805Z,1002.21
2018-12-22T10:53:19.800Z,1002.29
2018-12-22T10:54:19.754Z,1002.26
2018-12-22T10:55:19.753Z,1002.31
2018-12-22T10:56:19.727Z,1002.29
2018-12-22T10:57:19.707Z,1002.34
2018-12-22T10:58:19.744Z,1002.34
2018-12-22T10:59:19.696Z,1002.39
2018-12-22T11:00:19.689Z,1002.38
2018-12-22T11:01:26.532Z,1002.40
2018-12-22T11:02:20.640Z,1002.46
2018-12-22T11:03:19.629Z,1002.43
2018-12-22T11:04:19.617Z,1002.42
2018-12-22T11:05:19.607Z,1002.44
2018-12-22T11:06:19.597Z,1002.49
2018-12-22T11:07:19.587Z,1002.45
2018-12-22T11:08:19.574Z,1002.44
2018-12-22T11:09:19.567Z,1002.47
2018-12-22T11:10:19.556Z,1002.48
2018-12-22T11:11:19.541Z,1002.48
2018-12-22T11:12:19.534Z,1002.50
2018-12-22T11:13:19.527Z,1002.55
2018-12-22T11:14:19.516Z,1002.48
2018-12-22T11:15:19.501Z,1002.53
2018-12-22T11:16:19.489Z,1002.60
2018-12-22T11:17:19.480Z,1002.58
2018-12-22T11:18:19.467Z,1002.59
2018-12-22T11:19:19.463Z,1002.65
2018-12-22T11:20:19.446Z,1002.68
2018-12-22T11:21:19.438Z,1002.56
2018-12-22T11:22:19.425Z,1002.75
2018-12-22T11:23:20.549Z,1002.80
2018-12-22T11:24:19.406Z,1002.75
2018-12-22T11:25:19.418Z,1002.72
2018-12-22T11:26:19.387Z,1002.87
2018-12-22T11:27:19.379Z,1002.88
2018-12-22T11:28:19.367Z,1002.87
2018-12-22T11:29:19.353Z,1002.88
2018-12-22T11:30:19.343Z,1002.93
2018-12-22T11:31:19.332Z,1002.91
2018-12-22T11:32:19.319Z,1002.91
2018-12-22T11:33:19.310Z,1002.92
2018-12-22T11:34:19.299Z,1002.98
2018-12-22T11:35:19.291Z,1002.92
2018-12-22T11:36:19.323Z,1002.90
2018-12-22T11:37:19.270Z,1002.97
2018-12-22T11:38:19.258Z,1002.95
2018-12-22T11:39:19.250Z,1003.00
2018-12-22T11:40:19.247Z,1002.92
2018-12-22T11:41:19.223Z,1002.95
2018-12-22T11:42:19.218Z,1003.02
2018-12-22T11:43:19.213Z,1002.97
2018-12-22T11:44:19.193Z,1002.97
2018-12-22T11:45:19.184Z,1003.00
2018-12-22T11:46:19.173Z,1003.13
2018-12-22T11:47:19.159Z,1003.09
2018-12-22T11:48:19.156Z,1003.06
2018-12-22T11:49:19.138Z,1003.12
2018-12-22T11:50:19.127Z,1003.14
2018-12-22T11:51:19.115Z,1003.18
2018-12-22T11:52:19.104Z,1003.14
2018-12-22T11:53:19.096Z,1003.12
2018-12-22T11:54:19.084Z,1003.13
2018-12-22T11:55:19.075Z,1003.20
2018-12-22T11:56:19.062Z,1003.21
2018-12-22T11:57:19.053Z,1003.15
2018-12-22T11:58:19.049Z,1003.21
2018-12-22T11:59:19.029Z,1003.19
2018-12-22T12:00:19.025Z,1003.29
2018-12-22T12:01:19.010Z,1003.35
2018-12-22T12:02:19.002Z,1003.30
2018-12-22T12:03:18.988Z,1003.39
2018-12-22T12:04:18.981Z,1003.35
2018-12-22T12:05:18.967Z,1003.44
2018-12-22T12:06:18.972Z,1003.50
2018-12-22T12:07:18.946Z,1003.53
2018-12-22T12:08:18.935Z,1003.57
2018-12-22T12:09:18.924Z,1003.56
2018-12-22T12:10:18.914Z,1003.66
2018-12-22T12:11:18.914Z,1003.64
2018-12-22T12:12:18.952Z,1003.69
2018-12-22T12:13:18.878Z,1003.75
2018-12-22T12:14:18.868Z,1003.72
2018-12-22T12:15:18.859Z,1003.81
2018-12-22T12:16:18.847Z,1003.79
2018-12-22T12:17:20.161Z,1003.82
2018-12-22T12:18:18.827Z,1003.87
2018-12-22T12:19:18.821Z,1003.90
2018-12-22T12:20:18.805Z,1003.96
2018-12-22T12:21:18.793Z,1003.93